createdAt,value
2022-12-08T00:01:42.835Z,4.13
2022-12-08T00:04:10.318Z,4.16
2022-12-08T00:06:59.343Z,4.04
2022-12-08T00:09:37.975Z,4.22
2022-12-08T00:12:13.078Z,4.26
2022-12-08T00:14:42.474Z,4.31
2022-12-08T00:17:11.922Z,4.38
2022-12-08T00:19:39.475Z,4.56
2022-12-08T00:22:07.796Z,4.66
2022-12-08T00:24:40.530Z,4.75
2022-12-08T00:27:12.441Z,4.66
2022-12-08T00:29:39.630Z,4.60
2022-12-08T00:32:07.175Z,4.49
2022-12-08T00:34:34.337Z,4.44
2022-12-08T00:37:01.307Z,4.32
2022-12-08T00:39:28.209Z,4.21
2022-12-08T00:42:13.351Z,3.98
2022-12-08T00:44:45.818Z,4.11
2022-12-08T00:47:13.772Z,4.25
2022-12-08T00:49:40.867Z,4.46
2022-12-08T00:52:07.801Z,4.58
2022-12-08T00:54:34.811Z,4.72
2022-12-08T00:57:01.821Z,4.73
2022-12-08T00:59:28.675Z,4.69
2022-12-08T01:01:55.561Z,4.75
2022-12-08T01:04:22.723Z,4.72
2022-12-08T01:06:49.942Z,4.69
2022-12-08T01:09:18.331Z,4.65
2022-12-08T01:11:45.956Z,4.66
2022-12-08T01:14:13.061Z,4.69
2022-12-08T01:16:41.686Z,4.64
2022-12-08T01:19:11.869Z,4.73
2022-12-08T01:21:38.849Z,4.42
2022-12-08T01:24:06.265Z,4.17
2022-12-08T01:26:33.198Z,4.29
2022-12-08T01:29:00.046Z,4.42
2022-12-08T01:31:27.350Z,4.34
2022-12-08T01:33:54.366Z,4.60
2022-12-08T01:36:24.138Z,4.56
2022-12-08T01:38:52.149Z,4.42
2022-12-08T01:41:22.471Z,4.30
2022-12-08T01:43:58.439Z,4.19
2022-12-08T01:46:26.578Z,4.04
2022-12-08T01:49:07.892Z,3.98
2022-12-08T01:51:41.925Z,3.83
2022-12-08T01:54:09.408Z,3.91
2022-12-08T01:56:43.396Z,3.95
2022-12-08T01:59:12.380Z,4.14
2022-12-08T02:01:40.007Z,4.29
2022-12-08T02:04:06.925Z,4.35
2022-12-08T02:06:39.758Z,4.48
2022-12-08T02:09:07.502Z,4.50
2022-12-08T02:11:34.449Z,4.47
2022-12-08T02:14:08.348Z,4.32
2022-12-08T02:16:44.173Z,4.38
2022-12-08T02:19:48.147Z,4.39
2022-12-08T02:22:20.338Z,4.50
2022-12-08T02:25:09.770Z,4.59
2022-12-08T02:27:53.378Z,4.49
2022-12-08T02:30:20.311Z,4.30
2022-12-08T02:32:56.245Z,4.17
2022-12-08T02:36:07.543Z,4.08
2022-12-08T02:38:46.373Z,3.81
2022-12-08T02:41:24.652Z,3.72
2022-12-08T02:44:46.998Z,3.83
2022-12-08T02:47:18.001Z,4.13
2022-12-08T02:49:45.281Z,4.22
2022-12-08T02:52:12.120Z,4.13
2022-12-08T02:54:46.963Z,4.16
2022-12-08T02:57:38.949Z,4.19
2022-12-08T03:00:08.889Z,4.09
2022-12-08T03:03:05.115Z,4.08
2022-12-08T03:09:27.616Z,3.94
2022-12-08T03:12:06.761Z,3.98
2022-12-08T03:14:34.942Z,3.99
2022-12-08T03:17:03.340Z,3.86
2022-12-08T03:19:35.685Z,3.87
2022-12-08T03:22:04.984Z,3.80
2022-12-08T03:24:37.909Z,3.80
2022-12-08T03:27:09.848Z,3.69
2022-12-08T03:29:36.806Z,3.74
2022-12-08T03:32:19.398Z,3.84
2022-12-08T03:34:48.122Z,3.86
2022-12-08T03:37:15.417Z,3.69
2022-12-08T03:39:42.566Z,4.02
2022-12-08T03:42:09.485Z,3.87
2022-12-08T03:44:36.339Z,4.06
2022-12-08T03:47:03.244Z,4.14
2022-12-08T03:49:30.117Z,4.07
2022-12-08T03:52:04.116Z,4.23
2022-12-08T03:54:33.493Z,4.34
2022-12-08T03:57:00.419Z,4.56
2022-12-08T03:59:27.261Z,4.45
2022-12-08T04:01:54.141Z,4.34
2022-12-08T04:04:21.076Z,4.39
2022-12-08T04:06:47.945Z,4.27
2022-12-08T04:09:14.846Z,4.42
2022-12-08T04:11:41.723Z,4.46
2022-12-08T04:14:08.687Z,4.27
2022-12-08T04:16:35.692Z,4.09
2022-12-08T04:19:02.679Z,4.09
2022-12-08T04:21:29.623Z,4.04
2022-12-08T04:24:00.990Z,3.91
2022-12-08T04:26:28.506Z,3.82
2022-12-08T04:28:55.413Z,3.79
2022-12-08T04:31:22.339Z,3.81
2022-12-08T04:33:49.241Z,3.94
2022-12-08T04:36:16.164Z,4.11
2022-12-08T04:38:42.994Z,4.15
2022-12-08T04:41:09.854Z,4.10
2022-12-08T04:43:37.134Z,3.98
2022-12-08T04:46:09.060Z,3.96
2022-12-08T04:48:40.372Z,4.01
2022-12-08T04:51:07.951Z,3.96
2022-12-08T04:53:34.784Z,4.12
2022-12-08T04:56:01.618Z,4.01
2022-12-08T04:58:28.509Z,4.05
2022-12-08T05:00:55.410Z,4.11
2022-12-08T05:03:28.357Z,4.14
2022-12-08T05:05:56.012Z,4.11
2022-12-08T05:08:23.093Z,4.19
2022-12-08T05:10:50.069Z,4.30
2022-12-08T05:13:16.985Z,4.35
2022-12-08T05:15:44.151Z,4.38
2022-12-08T05:18:11.327Z,4.32
2022-12-08T05:20:38.185Z,4.36
2022-12-08T05:23:05.160Z,4.47
2022-12-08T05:25:32.087Z,4.43
2022-12-08T05:28:24.808Z,4.55
2022-12-08T05:30:46.374Z,4.61
2022-12-08T05:33:13.241Z,4.77
2022-12-08T05:35:40.292Z,4.65
2022-12-08T05:38:07.536Z,4.85
2022-12-08T05:40:34.511Z,4.85
2022-12-08T05:43:01.344Z,4.85
2022-12-08T05:45:28.324Z,4.99
2022-12-08T05:47:55.320Z,5.04
2022-12-08T05:50:22.199Z,4.99
2022-12-08T05:52:49.062Z,5.07
2022-12-08T05:55:16.074Z,5.09
2022-12-08T05:57:43.188Z,5.22
2022-12-08T06:00:10.683Z,5.18
2022-12-08T06:02:40.870Z,4.92
2022-12-08T06:05:08.377Z,5.13
2022-12-08T06:07:35.521Z,5.16
2022-12-08T06:10:03.032Z,4.89
2022-12-08T06:12:30.322Z,4.82
2022-12-08T06:14:57.246Z,5.07
2022-12-08T06:17:24.129Z,5.07
2022-12-08T06:19:50.997Z,5.03
2022-12-08T06:22:17.868Z,4.99
2022-12-08T06:24:44.733Z,4.83
2022-12-08T06:27:11.660Z,4.76
2022-12-08T06:29:38.508Z,4.77
2022-12-08T06:32:05.676Z,4.76
2022-12-08T06:34:32.581Z,4.56
2022-12-08T06:36:59.373Z,4.68
2022-12-08T06:39:26.332Z,4.77
2022-12-08T06:42:11.409Z,4.73
2022-12-08T06:44:38.901Z,4.78
2022-12-08T06:47:05.838Z,4.79
2022-12-08T06:49:32.666Z,4.90
2022-12-08T06:51:59.563Z,5.07
2022-12-08T06:54:26.826Z,5.12
2022-12-08T06:56:53.624Z,5.17
2022-12-08T06:59:20.497Z,5.12
2022-12-08T07:01:47.441Z,5.39
2022-12-08T07:04:14.432Z,5.56
2022-12-08T07:06:41.355Z,5.63
2022-12-08T07:09:08.200Z,5.74
2022-12-08T07:11:35.076Z,5.82
2022-12-08T07:14:02.002Z,5.75
2022-12-08T07:16:29.232Z,5.75
2022-12-08T07:18:56.157Z,6.01
2022-12-08T07:21:23.459Z,5.89
2022-12-08T07:23:55.961Z,6.01
2022-12-08T07:26:25.357Z,6.15
2022-12-08T07:28:52.437Z,6.08
2022-12-08T07:31:22.357Z,6.31
2022-12-08T07:33:50.409Z,6.24
2022-12-08T07:36:17.605Z,6.29
2022-12-08T07:38:45.059Z,5.87
2022-12-08T07:41:13.794Z,6.05
2022-12-08T07:43:41.941Z,6.24
2022-12-08T07:46:12.609Z,6.19
2022-12-08T07:48:39.610Z,6.15
2022-12-08T07:51:07.111Z,6.07
2022-12-08T07:53:34.328Z,6.12
2022-12-08T07:56:01.303Z,6.03
2022-12-08T07:58:28.264Z,6.09
2022-12-08T08:00:55.265Z,5.99
2022-12-08T08:03:22.452Z,6.36
2022-12-08T08:05:50.108Z,6.41
2022-12-08T08:08:17.749Z,6.40
2022-12-08T08:10:46.299Z,6.38
2022-12-08T08:13:13.806Z,6.62
2022-12-08T08:15:40.993Z,6.76
2022-12-08T08:18:07.953Z,6.81
2022-12-08T08:20:34.840Z,6.80
2022-12-08T08:23:01.768Z,7.06
2022-12-08T08:25:28.880Z,6.99
2022-12-08T08:27:55.882Z,6.83
2022-12-08T08:30:22.896Z,6.79
2022-12-08T08:32:50.574Z,6.57
2022-12-08T08:35:17.540Z,6.88
2022-12-08T08:37:48.933Z,6.91
2022-12-08T08:40:17.813Z,7.05
2022-12-08T08:42:44.668Z,6.90
2022-12-08T08:45:11.557Z,6.76
2022-12-08T08:47:38.525Z,6.97
2022-12-08T08:50:06.409Z,7.02
2022-12-08T08:52:33.494Z,7.08
2022-12-08T08:55:00.435Z,7.19
2022-12-08T08:57:27.511Z,7.13
2022-12-08T08:59:54.579Z,7.11
2022-12-08T09:02:25.205Z,7.26
2022-12-08T09:04:52.867Z,7.27
2022-12-08T09:07:20.040Z,7.17
2022-12-08T09:09:47.067Z,7.22
2022-12-08T09:12:14.033Z,7.22
2022-12-08T09:14:40.919Z,7.28
2022-12-08T09:17:08.513Z,7.24
2022-12-08T09:19:35.420Z,7.25
2022-12-08T09:22:02.257Z,7.27
2022-12-08T09:24:29.161Z,7.30
2022-12-08T09:26:56.070Z,7.46
2022-12-08T09:29:23.057Z,7.51
2022-12-08T09:31:50.226Z,7.71
2022-12-08T09:34:17.357Z,7.80
2022-12-08T09:36:44.223Z,8.00
2022-12-08T09:39:11.091Z,7.99
2022-12-08T09:41:50.067Z,8.00
2022-12-08T09:44:40.339Z,8.19
2022-12-08T09:47:16.284Z,8.23
2022-12-08T09:49:50.628Z,8.34
2022-12-08T09:52:26.645Z,8.36
2022-12-08T09:54:59.019Z,8.29
2022-12-08T09:57:26.212Z,8.19
2022-12-08T09:59:58.428Z,8.33
2022-12-08T10:02:29.231Z,8.30
2022-12-08T10:04:58.196Z,8.32
2022-12-08T10:07:39.547Z,8.22
2022-12-08T10:10:15.356Z,8.22
2022-12-08T10:13:08.372Z,8.21
2022-12-08T10:15:44.278Z,8.23
2022-12-08T10:18:18.894Z,8.18
2022-12-08T10:20:49.633Z,8.19
2022-12-08T10:23:50.306Z,8.33
2022-12-08T10:26:20.112Z,8.26
2022-12-08T10:28:47.170Z,8.35
2022-12-08T10:31:21.693Z,8.45
2022-12-08T10:33:55.239Z,8.54
2022-12-08T10:36:22.185Z,8.35
2022-12-08T10:38:49.074Z,8.57
2022-12-08T10:41:18.204Z,8.83
2022-12-08T10:43:53.005Z,8.71
2022-12-08T10:46:28.422Z,8.88
2022-12-08T10:49:16.868Z,8.93
2022-12-08T10:51:43.866Z,8.80
2022-12-08T10:54:34.208Z,8.83
2022-12-08T10:57:03.537Z,8.85
2022-12-08T10:59:33.917Z,8.87
2022-12-08T11:02:01.204Z,8.70
2022-12-08T11:04:36.527Z,8.84
2022-12-08T11:07:06.439Z,8.85
2022-12-08T11:09:50.883Z,8.77
2022-12-08T11:12:20.498Z,8.87
2022-12-08T11:14:54.531Z,8.74
2022-12-08T11:17:27.186Z,8.71
2022-12-08T11:20:01.703Z,8.79
2022-12-08T11:22:38.770Z,8.82
2022-12-08T11:25:08.551Z,8.94
2022-12-08T11:27:38.537Z,8.90
2022-12-08T11:30:26.173Z,8.82
2022-12-08T11:33:23.980Z,9.08
2022-12-08T11:36:10.217Z,9.01
2022-12-08T11:38:41.997Z,9.10
2022-12-08T11:41:15.834Z,9.13
2022-12-08T11:44:01.665Z,9.16
2022-12-08T11:46:40.402Z,9.17
2022-12-08T11:49:13.379Z,9.06
2022-12-08T11:51:44.524Z,9.29
2022-12-08T11:54:11.742Z,9.30
2022-12-08T11:56:43.036Z,9.14
2022-12-08T11:59:28.940Z,9.24
2022-12-08T12:01:57.934Z,9.30
2022-12-08T12:04:31.022Z,9.27
2022-12-08T12:07:09.855Z,9.32
2022-12-08T12:09:40.641Z,9.26
2022-12-08T12:12:25.925Z,9.27
2022-12-08T12:15:07.720Z,9.18
2022-12-08T12:17:47.830Z,9.24
2022-12-08T12:20:28.596Z,9.20
2022-12-08T12:23:37.259Z,9.20
2022-12-08T12:26:09.009Z,9.20
2022-12-08T12:28:49.830Z,9.06
2022-12-08T12:31:21.880Z,9.03
2022-12-08T12:33:51.166Z,9.02
2022-12-08T12:36:18.305Z,8.95
2022-12-08T12:39:07.787Z,8.86
2022-12-08T12:41:51.986Z,8.96
2022-12-08T12:44:18.840Z,8.76
2022-12-08T12:46:48.848Z,8.95
2022-12-08T12:49:40.782Z,8.92
2022-12-08T12:52:16.976Z,8.91
2022-12-08T12:55:04.765Z,8.78
2022-12-08T12:57:49.841Z,8.70
2022-12-08T13:00:22.996Z,8.71
2022-12-08T13:02:51.822Z,8.81
2022-12-08T13:05:29.649Z,8.82
2022-12-08T13:07:59.403Z,8.80
2022-12-08T13:10:33.991Z,8.79
2022-12-08T13:13:03.866Z,8.81
2022-12-08T13:15:36.636Z,8.86
2022-12-08T13:18:04.781Z,8.55
2022-12-08T13:20:43.226Z,8.87
2022-12-08T13:23:27.803Z,8.87
2022-12-08T13:26:15.158Z,8.94
2022-12-08T13:29:07.122Z,8.85
2022-12-08T13:31:49.846Z,8.78
2022-12-08T13:34:20.263Z,8.89
2022-12-08T13:36:50.164Z,8.88
2022-12-08T13:39:25.682Z,8.93
2022-12-08T13:42:00.495Z,8.98
2022-12-08T13:45:43.534Z,9.03
2022-12-08T13:48:30.190Z,9.15
2022-12-08T13:57:32.918Z,9.07
2022-12-08T14:00:02.355Z,9.04
2022-12-08T14:02:47.746Z,8.89
2022-12-08T14:05:34.649Z,8.93
2022-12-08T14:08:42.984Z,8.74
2022-12-08T14:11:07.577Z,8.65
2022-12-08T14:13:34.744Z,8.78
2022-12-08T14:16:02.477Z,8.52
2022-12-08T14:18:31.916Z,8.71
2022-12-08T14:21:20.358Z,8.35
2022-12-08T14:23:48.170Z,8.52
2022-12-08T14:26:15.130Z,8.51
2022-12-08T14:28:45.171Z,8.61
2022-12-08T14:31:14.722Z,8.52
2022-12-08T14:33:42.953Z,8.56
2022-12-08T14:36:11.022Z,8.57
2022-12-08T14:38:38.263Z,8.58
2022-12-08T14:41:07.978Z,8.56
2022-12-08T14:43:35.044Z,8.39
2022-12-08T14:46:18.842Z,8.54
2022-12-08T14:48:45.920Z,8.54
2022-12-08T14:51:18.782Z,8.53
2022-12-08T14:53:56.621Z,8.59
2022-12-08T14:56:26.446Z,8.54
2022-12-08T14:59:03.200Z,8.58
2022-12-08T15:01:30.676Z,8.62
2022-12-08T15:04:07.133Z,8.54
2022-12-08T15:06:34.391Z,8.47
2022-12-08T15:09:29.933Z,8.59
2022-12-08T15:12:24.695Z,8.45
2022-12-08T15:15:14.477Z,8.45
2022-12-08T15:17:47.547Z,8.38
2022-12-08T15:20:51.825Z,8.40
2022-12-08T15:23:29.665Z,8.40
2022-12-08T15:25:57.432Z,8.49
2022-12-08T15:28:30.269Z,8.55
2022-12-08T15:30:58.598Z,8.69
2022-12-08T15:33:25.881Z,8.60
2022-12-08T15:35:53.071Z,8.66
2022-12-08T15:38:26.979Z,8.73
2022-12-08T15:40:54.819Z,8.71
2022-12-08T15:43:22.815Z,8.52
2022-12-08T15:45:59.884Z,8.53
2022-12-08T15:48:30.750Z,8.81
2022-12-08T15:50:58.420Z,8.73
2022-12-08T15:53:25.745Z,8.75
2022-12-08T15:56:25.628Z,8.81
2022-12-08T15:58:56.673Z,8.75
2022-12-08T16:01:24.299Z,8.79
2022-12-08T16:09:38.588Z,8.72
2022-12-08T16:12:25.353Z,8.82
2022-12-08T16:17:40.672Z,8.97
2022-12-08T16:20:18.073Z,8.93
2022-12-08T16:23:13.380Z,9.07
2022-12-08T16:26:00.045Z,8.83
2022-12-08T16:28:52.975Z,8.70
2022-12-08T16:31:15.086Z,8.92
2022-12-08T16:33:43.568Z,8.98
2022-12-08T16:36:11.357Z,8.98
2022-12-08T16:38:38.265Z,9.01
2022-12-08T16:41:23.835Z,9.06
2022-12-08T16:43:51.292Z,8.84
2022-12-08T16:46:25.994Z,9.04
2022-12-08T16:48:52.907Z,9.01
2022-12-08T16:51:26.657Z,9.06
2022-12-08T16:53:53.925Z,8.96
2022-12-08T16:56:22.286Z,8.94
2022-12-08T16:58:51.147Z,9.06
2022-12-08T17:07:59.358Z,8.98
2022-12-08T17:10:28.872Z,9.00
2022-12-08T17:12:56.618Z,8.96
2022-12-08T17:15:25.721Z,8.96
2022-12-08T17:17:55.896Z,8.83
2022-12-08T17:20:25.229Z,9.07
2022-12-08T17:22:57.806Z,9.01
2022-12-08T17:25:26.080Z,9.05
2022-12-08T17:27:53.028Z,9.01
2022-12-08T17:30:20.032Z,9.01
2022-12-08T17:32:50.011Z,9.01
2022-12-08T17:35:16.868Z,8.93
2022-12-08T17:37:43.997Z,8.91
2022-12-08T17:40:11.570Z,8.85
2022-12-08T17:42:39.672Z,8.86
2022-12-08T17:45:08.091Z,8.89
2022-12-08T17:47:35.708Z,8.85
2022-12-08T17:50:02.971Z,8.64
2022-12-08T17:52:30.799Z,8.78
2022-12-08T17:54:57.714Z,8.83
2022-12-08T17:57:24.676Z,8.90
2022-12-08T17:59:51.547Z,8.83
2022-12-08T18:02:18.469Z,8.88
2022-12-08T18:04:45.529Z,8.85
2022-12-08T18:07:12.437Z,8.91
2022-12-08T18:09:39.382Z,8.89
2022-12-08T18:12:06.508Z,8.82
2022-12-08T18:14:33.492Z,8.88
2022-12-08T18:17:00.599Z,8.92
2022-12-08T18:19:27.971Z,8.74
2022-12-08T18:21:54.899Z,8.75
2022-12-08T18:24:23.473Z,8.84
2022-12-08T18:26:56.255Z,8.82
2022-12-08T18:29:23.800Z,8.82
2022-12-08T18:31:51.036Z,8.82
2022-12-08T18:34:21.800Z,8.69
2022-12-08T18:36:49.126Z,8.52
2022-12-08T18:39:33.882Z,8.52
2022-12-08T18:42:22.744Z,8.43
2022-12-08T18:44:57.129Z,8.57
2022-12-08T18:47:24.304Z,8.42
2022-12-08T18:49:53.726Z,8.42
2022-12-08T18:52:28.266Z,8.44
2022-12-08T18:55:06.259Z,8.37
2022-12-08T18:57:34.303Z,8.48
2022-12-08T19:00:02.709Z,8.38
2022-12-08T19:02:31.079Z,8.43
2022-12-08T19:04:58.055Z,8.41
2022-12-08T19:07:24.910Z,8.37
2022-12-08T19:09:51.776Z,8.36
2022-12-08T19:12:18.682Z,8.42
2022-12-08T19:14:45.694Z,8.47
2022-12-08T19:17:12.705Z,8.26
2022-12-08T19:19:39.598Z,8.36
2022-12-08T19:22:06.494Z,8.19
2022-12-08T19:24:34.888Z,8.28
2022-12-08T19:27:01.937Z,8.30
2022-12-08T19:29:28.997Z,8.27
2022-12-08T19:31:55.904Z,8.36
2022-12-08T19:34:25.334Z,8.20
2022-12-08T19:36:52.290Z,7.87
2022-12-08T19:39:40.141Z,8.17
2022-12-08T19:42:34.762Z,8.19
2022-12-08T19:45:10.148Z,8.19
2022-12-08T19:47:37.139Z,8.26
2022-12-08T19:50:24.320Z,8.31
2022-12-08T19:52:54.568Z,8.44
2022-12-08T19:55:24.830Z,8.43
2022-12-08T19:57:52.707Z,8.48
2022-12-08T20:00:21.851Z,8.36
2022-12-08T20:02:48.910Z,8.30
2022-12-08T20:05:16.025Z,8.34
2022-12-08T20:07:43.008Z,8.35
2022-12-08T20:10:28.219Z,8.38
2022-12-08T20:13:16.134Z,8.34
2022-12-08T20:15:43.703Z,8.48
2022-12-08T20:18:12.388Z,8.40
2022-12-08T20:20:40.258Z,8.42
2022-12-08T20:23:07.456Z,8.44
2022-12-08T20:25:37.212Z,8.38
2022-12-08T20:28:04.477Z,8.49
2022-12-08T20:30:31.410Z,8.52
2022-12-08T20:32:58.374Z,8.45
2022-12-08T20:35:25.282Z,8.47
2022-12-08T20:37:52.221Z,8.53
2022-12-08T20:40:19.251Z,8.51
2022-12-08T20:42:46.497Z,8.43
2022-12-08T20:45:13.528Z,8.48
2022-12-08T20:47:40.408Z,8.49
2022-12-08T20:50:08.581Z,8.45
2022-12-08T20:52:37.936Z,8.46
2022-12-08T20:55:06.658Z,8.44
2022-12-08T20:57:34.057Z,8.33
2022-12-08T21:00:01.075Z,8.22
2022-12-08T21:02:28.193Z,8.42
2022-12-08T21:04:55.339Z,8.39
2022-12-08T21:07:22.280Z,8.18
2022-12-08T21:09:49.369Z,8.29
2022-12-08T21:12:16.448Z,8.32
2022-12-08T21:14:43.818Z,8.23
2022-12-08T21:17:11.106Z,8.32
2022-12-08T21:19:38.298Z,8.08
2022-12-08T21:22:05.331Z,8.22
2022-12-08T21:24:34.320Z,8.20
2022-12-08T21:27:01.854Z,8.11
2022-12-08T21:29:28.995Z,8.03
2022-12-08T21:32:00.204Z,7.94
2022-12-08T21:34:31.914Z,7.89
2022-12-08T21:36:59.118Z,7.90
2022-12-08T21:39:26.849Z,7.80
2022-12-08T21:42:12.782Z,7.91
2022-12-08T21:44:40.436Z,7.82
2022-12-08T21:47:08.036Z,7.82
2022-12-08T21:49:37.622Z,7.89
2022-12-08T21:52:04.637Z,7.80
2022-12-08T21:54:31.540Z,7.92
2022-12-08T21:56:58.661Z,7.99
2022-12-08T21:59:25.667Z,7.99
2022-12-08T22:01:52.723Z,7.96
2022-12-08T22:04:21.840Z,7.99
2022-12-08T22:06:49.068Z,7.67
2022-12-08T22:09:16.105Z,7.73
2022-12-08T22:11:43.923Z,7.92
2022-12-08T22:14:14.838Z,7.82
2022-12-08T22:16:43.824Z,7.75
2022-12-08T22:19:11.363Z,7.76
2022-12-08T22:21:38.469Z,7.89
2022-12-08T22:24:06.239Z,7.91
2022-12-08T22:26:33.657Z,7.81
2022-12-08T22:29:00.620Z,7.88
2022-12-08T22:31:28.115Z,7.89
2022-12-08T22:33:55.781Z,7.97
2022-12-08T22:36:25.068Z,7.88
2022-12-08T22:38:53.399Z,8.04
2022-12-08T22:41:21.756Z,8.07
2022-12-08T22:43:51.318Z,8.14
2022-12-08T22:46:26.855Z,8.25
2022-12-08T22:48:54.856Z,8.33
2022-12-08T22:51:22.067Z,8.35
2022-12-08T22:53:49.683Z,8.31
2022-12-08T22:56:17.660Z,8.40
2022-12-08T22:58:45.540Z,8.40
2022-12-08T23:01:23.118Z,8.45
2022-12-08T23:03:50.225Z,8.28
2022-12-08T23:06:17.388Z,8.33
2022-12-08T23:08:45.192Z,8.11
2022-12-08T23:11:12.892Z,8.08
2022-12-08T23:13:42.256Z,8.00
2022-12-08T23:16:10.982Z,8.01
2022-12-08T23:18:42.189Z,8.07
2022-12-08T23:21:15.722Z,8.04
2022-12-08T23:23:42.904Z,8.00
2022-12-08T23:26:28.150Z,8.20
2022-12-08T23:28:55.674Z,8.13
2022-12-08T23:31:23.115Z,8.04
2022-12-08T23:33:50.571Z,7.99
2022-12-08T23:36:19.934Z,7.95
2022-12-08T23:38:47.281Z,7.76
2022-12-08T23:41:16.033Z,7.95
2022-12-08T23:43:48.848Z,8.05
2022-12-08T23:46:17.740Z,7.85
2022-12-08T23:48:44.731Z,8.00
2022-12-08T23:51:12.635Z,7.98
2022-12-08T23:53:40.142Z,8.02
2022-12-08T23:56:10.116Z,7.90
2022-12-08T23:58:37.186Z,7.91
